createdAt,value
2022-12-22T00:00:10.917Z,72.82
2022-12-22T00:02:59.429Z,74.27
2022-12-22T00:05:45.060Z,73.73
2022-12-22T00:08:30.632Z,73.81
2022-12-22T00:11:17.285Z,73.17
2022-12-22T00:14:04.720Z,72.85
2022-12-22T00:16:53.283Z,73.18
2022-12-22T00:19:38.719Z,73.29
2022-12-22T00:22:39.648Z,72.97
2022-12-22T00:25:25.622Z,73.07
2022-12-22T00:28:10.844Z,73.88
2022-12-22T00:30:56.493Z,74.53
2022-12-22T00:33:41.871Z,73.86
2022-12-22T00:36:30.675Z,74.84
2022-12-22T00:39:16.278Z,73.71
2022-12-22T00:42:02.252Z,73.97
2022-12-22T00:44:47.835Z,74.04
2022-12-22T00:47:45.061Z,74.35
2022-12-22T00:50:32.677Z,74.53
2022-12-22T00:53:19.223Z,74.28
2022-12-22T00:56:04.796Z,72.76
2022-12-22T00:58:50.442Z,73.19
2022-12-22T01:01:35.794Z,72.55
2022-12-22T01:04:21.205Z,71.98
2022-12-22T01:07:07.059Z,71.62
2022-12-22T01:09:52.583Z,70.91
2022-12-22T01:12:43.986Z,72.49
2022-12-22T01:15:35.460Z,73.00
2022-12-22T01:18:21.011Z,72.48
2022-12-22T01:21:06.523Z,72.28
2022-12-22T01:23:52.150Z,73.56
2022-12-22T01:26:37.995Z,72.64
2022-12-22T01:29:23.594Z,72.82
2022-12-22T01:32:09.166Z,72.95
2022-12-22T01:34:54.910Z,72.08
2022-12-22T01:37:40.164Z,71.51
2022-12-22T01:40:32.866Z,72.96
2022-12-22T01:43:18.501Z,72.34
2022-12-22T01:46:04.093Z,73.40
2022-12-22T01:48:51.024Z,73.28
2022-12-22T01:51:42.200Z,72.51
2022-12-22T01:54:29.297Z,72.02
2022-12-22T01:57:15.724Z,72.24
2022-12-22T02:00:02.035Z,72.17
2022-12-22T02:02:57.570Z,72.54
2022-12-22T02:05:42.990Z,73.11
2022-12-22T02:08:37.599Z,73.47
2022-12-22T02:11:32.148Z,73.60
2022-12-22T02:14:39.425Z,74.06
2022-12-22T02:17:47.933Z,73.72
2022-12-22T02:20:55.234Z,73.27
2022-12-22T02:24:25.277Z,74.24
2022-12-22T02:27:15.722Z,74.79
2022-12-22T02:30:09.597Z,75.21
2022-12-22T02:33:03.615Z,74.44
2022-12-22T02:36:12.005Z,74.34
2022-12-22T02:39:06.777Z,74.00
2022-12-22T02:42:06.291Z,73.55
2022-12-22T02:45:24.542Z,73.94
2022-12-22T02:48:34.861Z,72.63
2022-12-22T02:51:29.826Z,73.15
2022-12-22T02:54:15.946Z,72.48
2022-12-22T02:57:02.143Z,72.54
2022-12-22T02:59:47.800Z,72.30
2022-12-22T03:02:33.414Z,73.52
2022-12-22T03:05:19.489Z,71.92
2022-12-22T03:08:08.449Z,70.95
2022-12-22T03:10:54.879Z,71.11
2022-12-22T03:13:40.407Z,71.51
2022-12-22T03:16:26.171Z,72.54
2022-12-22T03:19:12.009Z,71.64
2022-12-22T03:21:57.523Z,71.65
2022-12-22T03:24:43.011Z,71.65
2022-12-22T03:27:09.942Z,72.68
2022-12-22T03:29:36.793Z,72.99
2022-12-22T03:32:03.821Z,72.83
2022-12-22T03:34:30.758Z,72.17
2022-12-22T03:36:57.653Z,72.97
2022-12-22T03:39:24.497Z,72.59
2022-12-22T03:42:09.840Z,72.72
2022-12-22T03:44:55.236Z,74.03
2022-12-22T03:47:22.206Z,73.73
2022-12-22T03:49:49.085Z,73.31
2022-12-22T03:52:15.964Z,74.01
2022-12-22T03:54:42.806Z,74.10
2022-12-22T03:57:09.758Z,73.80
2022-12-22T03:59:36.671Z,74.37
2022-12-22T04:02:03.644Z,74.43
2022-12-22T04:04:30.683Z,72.92
2022-12-22T04:06:58.325Z,74.25
2022-12-22T04:09:27.295Z,73.29
2022-12-22T04:12:12.761Z,73.51
2022-12-22T04:14:39.777Z,75.20
2022-12-22T04:17:07.539Z,75.56
2022-12-22T04:19:34.353Z,75.46
2022-12-22T04:22:01.410Z,76.04
2022-12-22T04:24:28.372Z,75.98
2022-12-22T04:26:55.277Z,75.44
2022-12-22T04:29:22.060Z,75.02
2022-12-22T04:31:48.939Z,75.39
2022-12-22T04:34:15.793Z,74.53
2022-12-22T04:36:42.654Z,75.84
2022-12-22T04:39:09.737Z,75.11
2022-12-22T04:41:36.703Z,76.06
2022-12-22T04:44:04.779Z,74.82
2022-12-22T04:46:33.621Z,74.55
2022-12-22T04:49:03.796Z,74.41
2022-12-22T04:51:30.615Z,74.34
2022-12-22T04:53:57.499Z,75.38
2022-12-22T04:56:24.347Z,75.73
2022-12-22T04:58:51.183Z,74.89
2022-12-22T05:01:19.453Z,75.90
2022-12-22T05:03:47.013Z,75.14
2022-12-22T05:06:14.796Z,76.41
2022-12-22T05:08:41.967Z,75.91
2022-12-22T05:11:09.053Z,75.75
2022-12-22T05:13:35.933Z,75.94
2022-12-22T05:16:08.245Z,74.75
2022-12-22T05:18:36.108Z,73.83
2022-12-22T05:21:06.301Z,73.72
2022-12-22T05:23:33.873Z,73.22
2022-12-22T05:26:00.889Z,73.21
2022-12-22T05:28:27.901Z,72.85
2022-12-22T05:30:55.418Z,71.96
2022-12-22T05:33:22.348Z,71.66
2022-12-22T05:35:49.382Z,71.90
2022-12-22T05:38:16.232Z,72.12
2022-12-22T05:40:43.077Z,72.58
2022-12-22T05:43:10.296Z,71.19
2022-12-22T05:45:37.231Z,72.11
2022-12-22T05:48:04.278Z,71.13
2022-12-22T05:50:32.767Z,71.35
2022-12-22T05:53:05.115Z,71.83
2022-12-22T05:55:32.042Z,70.79
2022-12-22T05:58:01.919Z,71.78
2022-12-22T06:00:30.991Z,71.83
2022-12-22T06:02:58.662Z,70.74
2022-12-22T06:05:25.651Z,69.63
2022-12-22T06:07:52.467Z,66.13
2022-12-22T06:10:20.834Z,61.89
2022-12-22T06:12:47.662Z,59.26
2022-12-22T06:15:15.236Z,57.53
2022-12-22T06:17:45.007Z,55.09
2022-12-22T06:20:13.784Z,54.36
2022-12-22T06:22:40.760Z,53.52
2022-12-22T06:25:10.798Z,52.59
2022-12-22T06:27:40.501Z,51.02
2022-12-22T06:30:08.128Z,51.27
2022-12-22T06:32:39.204Z,50.65
2022-12-22T06:35:08.027Z,53.05
2022-12-22T06:37:34.930Z,53.67
2022-12-22T06:40:02.145Z,56.27
2022-12-22T06:42:47.999Z,57.20
2022-12-22T06:45:14.958Z,58.80
2022-12-22T06:47:41.844Z,58.19
2022-12-22T06:50:09.340Z,59.31
2022-12-22T06:52:36.332Z,59.30
2022-12-22T06:55:04.225Z,59.23
2022-12-22T06:57:31.122Z,59.53
2022-12-22T06:59:58.201Z,56.40
2022-12-22T07:02:25.512Z,55.78
2022-12-22T07:04:52.648Z,55.14
2022-12-22T07:07:19.522Z,54.52
2022-12-22T07:09:46.464Z,53.98
2022-12-22T07:12:13.598Z,52.80
2022-12-22T07:14:40.663Z,52.15
2022-12-22T07:17:07.501Z,51.29
2022-12-22T07:19:35.069Z,52.38
2022-12-22T07:22:01.926Z,51.61
2022-12-22T07:24:29.534Z,49.39
2022-12-22T07:26:56.511Z,49.50
2022-12-22T07:29:24.003Z,49.83
2022-12-22T07:31:51.786Z,49.31
2022-12-22T07:34:18.794Z,50.13
2022-12-22T07:36:45.641Z,50.26
2022-12-22T07:39:13.127Z,49.10
2022-12-22T07:41:58.788Z,49.54
2022-12-22T07:44:25.755Z,49.30
2022-12-22T07:46:52.708Z,48.67
2022-12-22T07:49:38.051Z,50.25
2022-12-22T07:52:05.207Z,50.08
2022-12-22T07:54:36.548Z,49.99
2022-12-22T07:57:06.612Z,48.95
2022-12-22T07:59:33.462Z,48.65
2022-12-22T08:02:00.436Z,49.73
2022-12-22T08:04:27.522Z,48.17
2022-12-22T08:06:55.143Z,48.70
2022-12-22T08:09:23.110Z,48.43
2022-12-22T08:11:50.459Z,48.59
2022-12-22T08:14:17.467Z,49.25
2022-12-22T08:16:44.416Z,50.13
2022-12-22T08:19:11.457Z,50.52
2022-12-22T08:21:38.323Z,50.68
2022-12-22T08:24:05.632Z,51.65
2022-12-22T08:26:37.075Z,51.61
2022-12-22T08:29:08.899Z,51.10
2022-12-22T08:31:35.987Z,50.62
2022-12-22T08:34:06.416Z,51.23
2022-12-22T08:36:38.144Z,51.68
2022-12-22T08:39:05.290Z,51.21
2022-12-22T08:41:51.816Z,51.34
2022-12-22T08:44:29.313Z,49.16
2022-12-22T08:46:58.378Z,50.04
2022-12-22T08:49:26.373Z,48.83
2022-12-22T08:51:53.755Z,50.62
2022-12-22T08:54:21.093Z,49.84
2022-12-22T08:56:48.348Z,48.75
2022-12-22T08:59:15.592Z,48.46
2022-12-22T09:01:46.880Z,48.54
2022-12-22T09:04:15.822Z,48.48
2022-12-22T09:06:42.757Z,46.77
2022-12-22T09:09:11.713Z,47.95
2022-12-22T09:11:39.068Z,47.88
2022-12-22T09:14:06.400Z,47.78
2022-12-22T09:16:34.864Z,46.91
2022-12-22T09:19:02.530Z,47.95
2022-12-22T09:21:30.085Z,46.47
2022-12-22T09:23:57.762Z,46.08
2022-12-22T09:26:26.222Z,47.25
2022-12-22T09:28:53.752Z,46.06
2022-12-22T09:31:22.346Z,45.77
2022-12-22T09:33:49.406Z,46.29
2022-12-22T09:36:19.362Z,46.00
2022-12-22T09:38:46.702Z,45.45
2022-12-22T09:41:28.887Z,44.02
2022-12-22T09:43:56.689Z,44.84
2022-12-22T09:46:29.589Z,45.10
2022-12-22T09:48:56.824Z,44.91
2022-12-22T09:51:27.062Z,44.64
2022-12-22T09:53:59.544Z,45.01
2022-12-22T09:56:28.786Z,44.91
2022-12-22T09:58:56.380Z,45.19
2022-12-22T10:01:35.550Z,45.04
2022-12-22T10:04:30.860Z,45.60
2022-12-22T10:07:16.761Z,45.41
2022-12-22T10:09:51.115Z,45.86
2022-12-22T10:12:22.494Z,45.26
2022-12-22T10:14:52.083Z,44.93
2022-12-22T10:17:29.168Z,45.48
2022-12-22T10:20:10.899Z,45.19
2022-12-22T10:22:51.814Z,45.93
2022-12-22T10:26:17.303Z,47.03
2022-12-22T10:28:36.811Z,45.95
2022-12-22T10:31:09.595Z,45.42
2022-12-22T10:33:41.227Z,45.43
2022-12-22T10:36:13.041Z,44.97
2022-12-22T10:38:53.577Z,45.45
2022-12-22T10:41:24.052Z,44.19
2022-12-22T10:44:01.811Z,43.96
2022-12-22T10:46:41.503Z,44.02
2022-12-22T10:49:29.863Z,43.26
2022-12-22T10:52:15.316Z,44.01
2022-12-22T10:54:45.022Z,44.75
2022-12-22T10:57:14.675Z,44.85
2022-12-22T10:59:58.261Z,45.10
2022-12-22T11:02:29.544Z,45.70
2022-12-22T11:05:11.516Z,44.63
2022-12-22T11:07:41.598Z,43.70
2022-12-22T11:10:14.723Z,43.82
2022-12-22T11:13:16.723Z,43.70
2022-12-22T11:15:52.839Z,42.79
2022-12-22T11:18:19.717Z,43.47
2022-12-22T11:20:58.747Z,43.75
2022-12-22T11:23:36.062Z,43.77
2022-12-22T11:26:38.226Z,43.63
2022-12-22T11:29:16.964Z,42.45
2022-12-22T11:32:11.011Z,42.61
2022-12-22T11:35:05.708Z,43.41
2022-12-22T11:37:35.357Z,43.75
2022-12-22T11:40:30.886Z,43.76
2022-12-22T11:43:12.676Z,43.32
2022-12-22T11:46:01.234Z,43.90
2022-12-22T11:48:50.601Z,43.99
2022-12-22T11:52:02.115Z,44.37
2022-12-22T11:54:49.160Z,42.67
2022-12-22T11:57:39.391Z,41.13
2022-12-22T12:00:16.942Z,42.47
2022-12-22T12:03:01.905Z,41.55
2022-12-22T12:05:44.354Z,42.41
2022-12-22T12:08:32.718Z,42.48
2022-12-22T12:11:20.820Z,42.49
2022-12-22T12:14:00.459Z,43.42
2022-12-22T12:16:53.730Z,42.79
2022-12-22T12:19:26.826Z,43.26
2022-12-22T12:22:00.172Z,42.57
2022-12-22T12:24:48.796Z,41.40
2022-12-22T12:27:53.755Z,41.62
2022-12-22T12:30:39.304Z,42.76
2022-12-22T12:33:24.364Z,42.47
2022-12-22T12:36:09.631Z,41.84
2022-12-22T12:39:09.667Z,42.12
2022-12-22T12:41:55.405Z,40.69
2022-12-22T12:44:28.471Z,40.29
2022-12-22T12:46:57.231Z,40.40
2022-12-22T12:49:36.409Z,40.44
2022-12-22T12:52:08.151Z,41.06
2022-12-22T12:54:47.279Z,39.34
2022-12-22T12:57:26.906Z,38.21
2022-12-22T13:00:00.715Z,33.45
2022-12-22T13:02:28.295Z,23.09
2022-12-22T13:05:13.637Z,18.50
2022-12-22T13:08:08.631Z,17.42
2022-12-22T13:10:43.310Z,14.69
2022-12-22T13:13:34.706Z,16.45
2022-12-22T13:16:07.533Z,16.79
2022-12-22T13:18:34.603Z,22.79
2022-12-22T13:21:41.998Z,28.64
2022-12-22T13:26:45.352Z,33.43
2022-12-22T13:29:34.313Z,35.00
2022-12-22T13:32:14.526Z,36.46
2022-12-22T13:35:20.633Z,38.08
2022-12-22T13:37:40.630Z,38.71
2022-12-22T13:40:19.030Z,39.57
2022-12-22T13:42:51.934Z,40.25
2022-12-22T13:45:40.095Z,41.40
2022-12-22T13:48:31.193Z,41.35
2022-12-22T13:51:04.492Z,41.88
2022-12-22T13:56:46.211Z,42.69
2022-12-22T13:59:31.214Z,43.30
2022-12-22T14:02:00.635Z,43.84
2022-12-22T14:04:29.172Z,44.07
2022-12-22T14:06:56.621Z,44.45
2022-12-22T14:09:28.043Z,44.48
2022-12-22T14:12:14.788Z,44.54
2022-12-22T14:14:44.668Z,44.91
2022-12-22T14:17:42.263Z,45.69
2022-12-22T14:20:28.546Z,45.68
2022-12-22T14:23:18.091Z,47.61
2022-12-22T14:25:46.936Z,48.91
2022-12-22T14:28:25.534Z,49.25
2022-12-22T14:31:01.229Z,48.84
2022-12-22T14:33:34.031Z,49.29
2022-12-22T14:36:16.572Z,50.28
2022-12-22T14:38:50.010Z,50.51
2022-12-22T14:41:46.230Z,50.77
2022-12-22T14:44:32.027Z,52.25
2022-12-22T14:47:20.133Z,51.71
2022-12-22T14:49:52.203Z,52.05
2022-12-22T14:52:23.997Z,53.09
2022-12-22T14:54:53.323Z,53.39
2022-12-22T14:57:28.277Z,53.76
2022-12-22T15:00:24.324Z,54.39
2022-12-22T15:02:55.677Z,54.25
2022-12-22T15:05:35.658Z,55.25
2022-12-22T15:08:08.081Z,54.58
2022-12-22T15:10:40.317Z,55.96
2022-12-22T15:13:13.517Z,56.62
2022-12-22T15:15:40.536Z,56.37
2022-12-22T15:18:14.318Z,56.23
2022-12-22T15:20:41.644Z,56.06
2022-12-22T15:23:18.965Z,56.29
2022-12-22T15:25:46.034Z,57.89
2022-12-22T15:28:13.436Z,57.48
2022-12-22T15:30:41.033Z,57.04
2022-12-22T15:33:16.992Z,57.70
2022-12-22T15:35:44.961Z,58.25
2022-12-22T15:38:21.449Z,58.27
2022-12-22T15:40:48.778Z,58.41
2022-12-22T15:43:55.780Z,58.83
2022-12-22T15:46:05.823Z,59.38
2022-12-22T15:48:35.640Z,58.66
2022-12-22T15:51:04.341Z,59.91
2022-12-22T15:53:33.181Z,60.90
2022-12-22T15:56:01.030Z,60.33
2022-12-22T15:58:33.337Z,59.54
2022-12-22T16:01:00.414Z,60.06
2022-12-22T16:03:27.470Z,59.77
2022-12-22T16:05:55.043Z,60.31
2022-12-22T16:08:37.735Z,60.52
2022-12-22T16:11:07.417Z,61.22
2022-12-22T16:13:36.557Z,60.88
2022-12-22T16:16:04.069Z,62.12
2022-12-22T16:18:31.145Z,62.32
2022-12-22T16:21:07.323Z,61.77
2022-12-22T16:23:35.448Z,62.50
2022-12-22T16:26:05.177Z,62.29
2022-12-22T16:28:33.437Z,62.02
2022-12-22T16:31:01.329Z,62.07
2022-12-22T16:33:28.325Z,62.36
2022-12-22T16:35:55.217Z,62.60
2022-12-22T16:38:22.081Z,63.40
2022-12-22T16:40:53.494Z,63.57
2022-12-22T16:46:16.140Z,62.61
2022-12-22T16:48:51.051Z,63.32
2022-12-22T16:51:23.199Z,63.10
2022-12-22T16:53:50.085Z,63.80
2022-12-22T16:56:20.366Z,63.24
2022-12-22T16:58:48.142Z,63.87
2022-12-22T17:01:25.196Z,63.27
2022-12-22T17:03:52.932Z,63.11
2022-12-22T17:06:19.925Z,63.40
2022-12-22T17:08:47.258Z,63.64
2022-12-22T17:11:21.705Z,62.97
2022-12-22T17:13:50.331Z,62.80
2022-12-22T17:16:22.872Z,63.16
2022-12-22T17:18:50.049Z,62.91
2022-12-22T17:21:19.551Z,62.25
2022-12-22T17:23:50.750Z,63.15
2022-12-22T17:26:21.113Z,62.62
2022-12-22T17:28:49.978Z,61.53
2022-12-22T17:31:19.176Z,62.44
2022-12-22T17:33:46.259Z,63.61
2022-12-22T17:36:33.487Z,64.27
2022-12-22T17:39:02.091Z,64.51
2022-12-22T17:41:29.215Z,64.03
2022-12-22T17:43:56.114Z,63.46
2022-12-22T17:46:23.094Z,64.12
2022-12-22T17:48:50.310Z,63.78
2022-12-22T17:51:23.445Z,64.27
2022-12-22T17:53:51.266Z,65.44
2022-12-22T17:56:20.653Z,65.15
2022-12-22T17:58:48.258Z,65.36
2022-12-22T18:01:28.709Z,64.31
2022-12-22T18:03:55.856Z,64.06
2022-12-22T18:06:26.583Z,63.09
2022-12-22T18:08:55.446Z,63.78
2022-12-22T18:11:22.959Z,62.97
2022-12-22T18:13:50.631Z,62.74
2022-12-22T18:16:20.479Z,63.73
2022-12-22T18:18:47.847Z,63.97
2022-12-22T18:21:23.077Z,64.00
2022-12-22T18:23:51.434Z,63.71
2022-12-22T18:26:22.033Z,63.41
2022-12-22T18:28:49.642Z,63.82
2022-12-22T18:31:17.172Z,64.07
2022-12-22T18:33:44.389Z,63.44
2022-12-22T18:36:28.195Z,63.94
2022-12-22T18:38:55.566Z,64.40
2022-12-22T18:41:25.349Z,63.76
2022-12-22T18:43:52.653Z,63.58
2022-12-22T18:46:20.155Z,64.23
2022-12-22T18:48:47.975Z,64.39
2022-12-22T18:51:24.831Z,64.79
2022-12-22T18:53:53.447Z,65.59
2022-12-22T18:56:22.100Z,64.70
2022-12-22T18:58:49.277Z,64.90
2022-12-22T19:01:22.856Z,64.95
2022-12-22T19:03:52.709Z,65.26
2022-12-22T19:06:21.349Z,64.78
2022-12-22T19:08:49.088Z,65.06
2022-12-22T19:11:18.619Z,65.29
2022-12-22T19:13:48.085Z,64.65
2022-12-22T19:16:18.193Z,65.17
2022-12-22T19:18:45.317Z,65.00
2022-12-22T19:21:13.829Z,65.32
2022-12-22T19:23:40.863Z,65.32
2022-12-22T19:26:20.665Z,65.33
2022-12-22T19:28:49.376Z,65.37
2022-12-22T19:31:23.465Z,66.46
2022-12-22T19:33:51.514Z,65.79
2022-12-22T19:36:27.018Z,66.04
2022-12-22T19:39:03.520Z,65.34
2022-12-22T19:41:34.643Z,65.42
2022-12-22T19:44:01.858Z,65.02
2022-12-22T19:46:33.608Z,65.46
2022-12-22T19:49:01.078Z,65.33
2022-12-22T19:51:28.893Z,64.86
2022-12-22T19:53:55.707Z,65.39
2022-12-22T19:56:31.920Z,66.35
2022-12-22T19:59:01.224Z,65.97
2022-12-22T20:01:28.328Z,65.36
2022-12-22T20:03:56.368Z,65.90
2022-12-22T20:06:23.286Z,66.95
2022-12-22T20:08:50.213Z,67.45
2022-12-22T20:11:19.474Z,66.91
2022-12-22T20:13:47.330Z,66.81
2022-12-22T20:16:15.698Z,66.95
2022-12-22T20:18:44.451Z,68.48
2022-12-22T20:21:16.166Z,67.93
2022-12-22T20:23:43.498Z,66.96
2022-12-22T20:26:16.395Z,67.14
2022-12-22T20:28:43.342Z,66.60
2022-12-22T20:31:13.810Z,66.81
2022-12-22T20:33:41.243Z,66.68
2022-12-22T20:36:18.943Z,66.44
2022-12-22T20:38:46.735Z,65.98
2022-12-22T20:41:13.584Z,65.93
2022-12-22T20:43:40.876Z,65.84
2022-12-22T20:46:17.120Z,66.23
2022-12-22T20:48:50.438Z,66.24
2022-12-22T20:51:19.929Z,67.50
2022-12-22T20:53:48.081Z,66.61
2022-12-22T20:56:23.408Z,66.92
2022-12-22T20:58:51.036Z,67.42
2022-12-22T21:01:18.829Z,67.35
2022-12-22T21:03:46.156Z,67.08
2022-12-22T21:06:37.748Z,66.46
2022-12-22T21:09:05.500Z,67.19
2022-12-22T21:11:32.482Z,67.91
2022-12-22T21:13:59.398Z,67.82
2022-12-22T21:16:28.984Z,68.38
2022-12-22T21:18:56.045Z,68.17
2022-12-22T21:21:23.796Z,67.85
2022-12-22T21:23:51.292Z,68.15
2022-12-22T21:26:22.894Z,68.82
2022-12-22T21:28:51.451Z,68.69
2022-12-22T21:31:18.395Z,68.92
2022-12-22T21:33:45.607Z,68.67
2022-12-22T21:36:20.858Z,67.98
2022-12-22T21:38:48.753Z,67.74
2022-12-22T21:41:15.602Z,67.15
2022-12-22T21:43:42.916Z,68.01
2022-12-22T21:46:12.948Z,67.62
2022-12-22T21:48:39.985Z,68.42
2022-12-22T21:51:06.904Z,68.57
2022-12-22T21:53:33.799Z,68.43
2022-12-22T21:56:00.693Z,68.20
2022-12-22T21:58:27.551Z,67.86
2022-12-22T22:00:54.442Z,68.06
2022-12-22T22:03:21.372Z,68.37
2022-12-22T22:05:48.265Z,68.51
2022-12-22T22:08:15.094Z,69.08
2022-12-22T22:10:43.693Z,69.72
2022-12-22T22:13:19.604Z,69.24
2022-12-22T22:15:46.550Z,70.19
2022-12-22T22:18:18.523Z,70.14
2022-12-22T22:20:45.431Z,70.22
2022-12-22T22:23:14.430Z,69.86
2022-12-22T22:25:41.557Z,70.00
2022-12-22T22:28:11.620Z,69.30
2022-12-22T22:30:41.098Z,70.72
2022-12-22T22:33:07.938Z,70.67
2022-12-22T22:35:34.811Z,70.57
2022-12-22T22:38:01.664Z,69.98
2022-12-22T22:40:28.480Z,70.83
2022-12-22T22:42:56.915Z,69.76
2022-12-22T22:45:24.325Z,69.12
2022-12-22T22:47:52.591Z,69.88
2022-12-22T22:50:21.350Z,69.74
2022-12-22T22:52:49.121Z,68.64
2022-12-22T22:55:16.162Z,69.15
2022-12-22T22:57:43.372Z,69.38
2022-12-22T23:00:12.537Z,69.47
2022-12-22T23:02:39.653Z,70.01
2022-12-22T23:05:07.578Z,71.09
2022-12-22T23:07:35.496Z,70.76
2022-12-22T23:10:03.283Z,70.85
2022-12-22T23:12:30.177Z,70.41
2022-12-22T23:14:57.380Z,70.74
2022-12-22T23:17:24.196Z,70.92
2022-12-22T23:19:50.972Z,70.57
2022-12-22T23:22:17.789Z,70.95
2022-12-22T23:24:44.601Z,70.44
2022-12-22T23:27:11.851Z,70.16
2022-12-22T23:29:39.151Z,69.82
2022-12-22T23:32:06.353Z,70.67
2022-12-22T23:34:33.328Z,70.89
2022-12-22T23:37:00.186Z,70.86
2022-12-22T23:39:28.036Z,71.31
2022-12-22T23:41:54.919Z,70.47
2022-12-22T23:44:21.852Z,69.61
2022-12-22T23:46:48.734Z,70.01
2022-12-22T23:49:15.580Z,70.47
2022-12-22T23:51:42.442Z,69.98
2022-12-22T23:54:09.609Z,70.24
2022-12-22T23:56:36.562Z,70.39
2022-12-22T23:59:03.428Z,70.31
